CheckWX is a tool to help pilots better visualize weather data.  It is not intended as a substitute for an official pre-flight weather briefing.

00:55:57 UTC

LJPZ METAR
Portoroz Airport
Portoroz, Slovenia
Current

26 mins ago

LJPZ 230030Z AUTO 12005KT 9999 NSC 14/13 Q1016
Observed
May-23 @ 00:30 UTC
Wind
  • 120° at 5 KTS
Visibility
10,000+ meters
Flight Rules
VFR
Cloud Levels
  • Clear skies
Temperature
14°C / 57°F
Dewpoint
13°C / 55°F
Humidity
94%
Altimeter
30" Hg
Pressure
1015.92 hPa
Previous

56 mins ago

LJPZ 230000Z AUTO 13005KT 9999 NSC 14/13 Q1016
Observed
May-23 @ 00:00 UTC
Wind
  • 130° at 5 KTS
Visibility
10,000+ meters
Flight Rules
VFR
Cloud Levels
  • Clear skies
Temperature
14°C / 57°F
Dewpoint
13°C / 55°F
Humidity
94%
Altimeter
30" Hg
Pressure
1015.92 hPa
Previous

1 hour ago

LJPZ 222330Z AUTO 12004KT 9999 NSC 14/13 Q1016
Observed
May-22 @ 23:30 UTC
Wind
  • 120° at 4 KTS
Visibility
10,000+ meters
Flight Rules
VFR
Cloud Levels
  • Clear skies
Temperature
14°C / 57°F
Dewpoint
13°C / 55°F
Humidity
94%
Altimeter
30" Hg
Pressure
1015.92 hPa